Time;durP1;ratioP1;P1;durP2;ratioP2;P2;SDS_P1;SDS_P2;PMS_P1;PMS_P2;Temp;Humidity;BMP_temperature;BMP_pressure;BME280_temperature;BME280_humidity;BME280_pressure;Samples;Min_cycle;Max_cycle;Signal;HPM_P1;HPM_P2
2021/05/14 00:00:11;;;;;;;23.83;14.00;;;9.20;92.50;;;;;;5054269;28;20218;-83
2021/05/14 00:02:40;;;;;;;32.77;17.30;;;9.20;92.60;;;;;;5054415;28;20210;-83
2021/05/14 00:05:07;;;;;;;27.57;14.80;;;9.20;92.70;;;;;;5054174;28;20602;-84
2021/05/14 00:07:33;;;;;;;26.30;14.93;;;9.20;92.80;;;;;;5054085;28;20218;-83
2021/05/14 00:09:59;;;;;;;32.97;15.87;;;9.20;92.90;;;;;;5054027;28;20179;-83
2021/05/14 00:12:24;;;;;;;28.43;17.03;;;9.20;92.90;;;;;;5054074;28;20230;-83
2021/05/14 00:14:50;;;;;;;29.20;16.77;;;9.20;92.80;;;;;;5054152;28;20559;-83
2021/05/14 00:17:15;;;;;;;34.30;17.47;;;9.20;92.80;;;;;;5053994;28;20298;-84
2021/05/14 00:19:41;;;;;;;36.07;17.07;;;9.20;92.80;;;;;;5053882;28;20179;-84
2021/05/14 00:22:07;;;;;;;38.10;17.97;;;9.20;92.80;;;;;;5054072;28;20192;-83
2021/05/14 00:24:32;;;;;;;30.93;15.63;;;9.20;92.90;;;;;;5035854;28;20168;-84
2021/05/14 00:26:58;;;;;;;39.10;16.13;;;9.20;92.90;;;;;;5053866;28;20180;-83
2021/05/14 00:29:24;;;;;;;34.30;14.77;;;9.20;92.80;;;;;;5053787;28;20187;-84
2021/05/14 00:31:50;;;;;;;32.70;15.33;;;9.10;92.80;;;;;;5053762;28;20192;-83
2021/05/14 00:34:15;;;;;;;28.10;15.13;;;9.20;92.80;;;;;;5053968;28;20514;-83
2021/05/14 00:36:41;;;;;;;37.40;16.60;;;9.20;92.80;;;;;;5035814;28;20187;-84
2021/05/14 00:39:06;;;;;;;37.60;17.13;;;9.20;92.80;;;;;;5053847;28;20175;-84
2021/05/14 00:41:32;;;;;;;41.63;16.57;;;9.20;92.90;;;;;;5035590;28;20196;-84
2021/05/14 00:43:58;;;;;;;34.23;16.43;;;9.20;92.90;;;;;;5053516;28;20608;-83
2021/05/14 00:46:25;;;;;;;27.00;14.97;;;9.20;92.80;;;;;;5053525;28;20175;-83
2021/05/14 00:48:50;;;;;;;35.93;15.97;;;9.20;92.80;;;;;;5035524;28;20247;-84
2021/05/14 00:51:16;;;;;;;33.87;16.33;;;9.20;92.80;;;;;;5053193;28;20208;-84
2021/05/14 00:53:42;;;;;;;37.63;15.00;;;9.20;92.70;;;;;;5035503;28;20181;-83
2021/05/14 00:56:08;;;;;;;35.13;16.87;;;9.20;92.70;;;;;;5052528;28;20225;-83
2021/05/14 00:58:34;;;;;;;35.67;15.77;;;9.20;92.70;;;;;;5053388;28;20255;-83
2021/05/14 01:00:59;;;;;;;37.83;15.80;;;9.20;92.70;;;;;;5053113;28;20206;-84
2021/05/14 01:03:25;;;;;;;35.87;17.30;;;9.20;92.70;;;;;;5053795;28;20164;-84
2021/05/14 01:05:51;;;;;;;37.20;16.40;;;9.20;92.70;;;;;;5053154;28;20172;-84
2021/05/14 01:08:17;;;;;;;41.83;18.00;;;9.20;92.70;;;;;;5035379;28;20217;-83
2021/05/14 01:10:43;;;;;;;43.27;19.17;;;9.20;92.60;;;;;;5053041;28;20187;-83
2021/05/14 01:13:08;;;;;;;38.53;19.57;;;9.20;92.70;;;;;;5053152;28;20172;-83
2021/05/14 01:15:34;;;;;;;43.33;19.00;;;9.20;92.70;;;;;;5053148;28;20614;-83
2021/05/14 01:17:59;;;;;;;34.60;19.03;;;9.20;92.70;;;;;;5053116;28;20640;-83
2021/05/14 01:20:30;;;;;;;40.07;20.07;;;9.20;92.80;;;;;;5035045;28;20660;-83
2021/05/14 01:22:56;;;;;;;42.07;21.23;;;9.10;92.80;;;;;;5053065;28;20164;-83
2021/05/14 01:25:22;;;;;;;41.10;20.37;;;9.20;92.90;;;;;;5052967;28;20225;-84
2021/05/14 01:27:47;;;;;;;38.50;20.43;;;9.20;92.90;;;;;;5053007;28;20175;-83
2021/05/14 01:30:13;;;;;;;36.27;19.00;;;9.10;92.90;;;;;;5052883;28;20176;-84
2021/05/14 01:32:39;;;;;;;43.80;21.00;;;9.10;92.90;;;;;;5035120;28;20184;-83
2021/05/14 01:35:05;;;;;;;41.63;21.20;;;9.20;92.90;;;;;;5053020;28;20542;-84
2021/05/14 01:37:31;;;;;;;47.97;23.10;;;9.20;92.90;;;;;;5053024;28;20670;-84
2021/05/14 01:39:57;;;;;;;40.67;20.93;;;9.20;92.90;;;;;;5035041;28;20180;-83
2021/05/14 01:42:22;;;;;;;48.80;23.93;;;9.20;92.90;;;;;;5034957;28;20206;-84
2021/05/14 01:44:48;;;;;;;41.70;22.43;;;9.20;92.90;;;;;;5052854;28;20164;-84
2021/05/14 01:47:17;;;;;;;50.47;22.47;;;9.20;92.90;;;;;;5052813;28;20168;-84
2021/05/14 01:49:43;;;;;;;46.60;21.77;;;9.20;92.90;;;;;;5052769;28;20251;-83
2021/05/14 01:52:09;;;;;;;42.00;20.57;;;9.20;92.90;;;;;;5052672;28;20282;-84
2021/05/14 01:54:34;;;;;;;42.17;21.57;;;9.20;92.80;;;;;;5034871;28;20176;-84
2021/05/14 01:57:00;;;;;;;42.00;19.50;;;9.10;92.80;;;;;;5053029;28;20174;-84
2021/05/14 01:59:25;;;;;;;43.67;20.50;;;9.10;92.80;;;;;;5052916;28;20177;-84
2021/05/14 02:01:51;;;;;;;51.43;21.30;;;9.10;92.70;;;;;;5052628;28;20208;-83
2021/05/14 02:04:17;;;;;;;36.53;20.37;;;9.10;92.70;;;;;;5052673;28;20713;-83
2021/05/14 02:06:42;;;;;;;44.50;19.17;;;9.10;92.70;;;;;;5053288;28;20168;-83
2021/05/14 02:09:08;;;;;;;40.20;19.27;;;9.00;92.60;;;;;;5056363;28;20541;-84
2021/05/14 02:11:34;;;;;;;47.40;19.17;;;9.10;92.70;;;;;;5056580;28;20666;-84
2021/05/14 02:14:00;;;;;;;36.50;19.47;;;9.00;92.60;;;;;;5038480;28;20317;-84
2021/05/14 02:16:26;;;;;;;39.87;18.50;;;9.00;92.60;;;;;;5038430;28;20186;-84
2021/05/14 02:18:52;;;;;;;37.73;18.07;;;9.10;92.60;;;;;;5038397;28;20176;-84
2021/05/14 02:21:18;;;;;;;42.73;18.47;;;9.00;92.50;;;;;;5038177;28;20206;-84
2021/05/14 02:23:43;;;;;;;37.03;18.33;;;9.00;92.60;;;;;;5056390;28;20534;-83
2021/05/14 02:26:09;;;;;;;35.47;17.43;;;9.00;92.60;;;;;;5038424;28;20188;-83
2021/05/14 02:28:35;;;;;;;45.53;17.23;;;9.00;92.60;;;;;;5056028;28;20202;-83
2021/05/14 02:31:02;;;;;;;31.27;15.37;;;9.00;92.60;;;;;;5056758;28;20200;-83
2021/05/14 02:33:27;;;;;;;37.63;17.20;;;9.00;92.60;;;;;;5056140;28;20168;-84
2021/05/14 02:35:53;;;;;;;41.33;16.37;;;9.00;92.50;;;;;;5038111;28;20180;-84
2021/05/14 02:38:19;;;;;;;40.93;16.40;;;9.00;92.60;;;;;;5038050;28;20647;-84
2021/05/14 02:40:44;;;;;;;43.20;15.03;;;9.00;92.70;;;;;;5055880;28;20203;-84
2021/05/14 02:43:10;;;;;;;36.13;16.87;;;9.00;92.70;;;;;;5055700;28;20247;-84
2021/05/14 02:45:36;;;;;;;45.33;18.20;;;9.00;92.70;;;;;;5055684;28;20171;-83
2021/05/14 02:48:02;;;;;;;43.33;17.67;;;9.00;92.70;;;;;;5037869;28;20250;-83
2021/05/14 02:50:28;;;;;;;35.90;17.13;;;9.00;92.70;;;;;;5037542;28;20254;-84
2021/05/14 02:52:53;;;;;;;38.70;16.43;;;8.90;92.70;;;;;;5037968;28;20188;-84
2021/05/14 02:55:19;;;;;;;40.73;17.10;;;9.00;92.70;;;;;;5055811;28;20587;-84
2021/05/14 02:57:45;;;;;;;33.60;16.30;;;9.00;92.60;;;;;;5055536;28;20644;-84
2021/05/14 03:00:12;;;;;;;37.33;16.57;;;9.00;92.60;;;;;;5055261;28;20251;-83
2021/05/14 03:02:37;;;;;;;35.47;16.87;;;9.00;92.50;;;;;;5055372;28;20738;-83
2021/05/14 03:05:04;;;;;;;43.00;16.87;;;8.90;92.60;;;;;;5037379;28;20169;-83
2021/05/14 03:07:29;;;;;;;43.47;15.80;;;8.90;92.60;;;;;;5055634;28;20259;-83
2021/05/14 03:09:55;;;;;;;37.63;16.83;;;9.00;92.70;;;;;;5055327;28;20247;-83
2021/05/14 03:12:21;;;;;;;39.03;16.30;;;9.00;92.70;;;;;;5055125;28;20188;-84
2021/05/14 03:14:46;;;;;;;34.77;15.70;;;9.00;92.70;;;;;;5037236;28;20183;-84
2021/05/14 03:17:12;;;;;;;49.73;17.60;;;9.00;92.60;;;;;;5055197;28;20172;-84
2021/05/14 03:19:37;;;;;;;35.63;15.67;;;9.00;92.50;;;;;;5054327;28;20636;-84
2021/05/14 03:22:03;;;;;;;33.87;15.77;;;8.90;92.50;;;;;;5054931;28;20191;-83
2021/05/14 03:24:28;;;;;;;37.90;17.17;;;8.90;92.40;;;;;;5054958;28;20206;-84
2021/05/14 03:26:54;;;;;;;46.37;16.57;;;9.00;92.40;;;;;;5054952;28;20172;-83
2021/05/14 03:29:20;;;;;;;41.70;16.03;;;9.00;92.50;;;;;;5037035;28;20662;-83
2021/05/14 03:31:46;;;;;;;39.07;16.13;;;9.00;92.50;;;;;;5054851;28;20246;-84
2021/05/14 03:34:12;;;;;;;45.20;17.27;;;9.00;92.50;;;;;;5036954;28;20200;-83
2021/05/14 03:36:38;;;;;;;34.00;16.30;;;9.00;92.40;;;;;;5036866;28;20712;-84
2021/05/14 03:39:08;;;;;;;41.47;15.40;;;9.00;92.40;;;;;;5054987;28;20176;-83
2021/05/14 03:41:46;;;;;;;37.00;15.77;;;9.00;92.40;;;;;;5036686;28;20211;-83
2021/05/14 03:44:12;;;;;;;36.83;14.77;;;9.00;92.40;;;;;;5054883;28;20151;-83
2021/05/14 03:46:38;;;;;;;40.83;17.27;;;9.00;92.40;;;;;;5054491;28;20246;-83
2021/05/14 03:49:04;;;;;;;44.70;15.77;;;9.00;92.40;;;;;;5054511;28;20164;-83
2021/05/14 03:51:30;;;;;;;37.67;14.87;;;9.00;92.50;;;;;;5054287;28;20215;-83
2021/05/14 03:53:56;;;;;;;43.33;16.90;;;9.00;92.50;;;;;;5054694;28;20564;-84
2021/05/14 03:56:21;;;;;;;41.97;17.63;;;9.00;92.50;;;;;;5036513;28;20179;-84
2021/05/14 03:58:47;;;;;;;29.37;15.70;;;9.00;92.50;;;;;;5054316;28;20263;-83
2021/05/14 04:01:12;;;;;;;35.53;16.03;;;9.00;92.50;;;;;;5054035;28;20219;-83
2021/05/14 04:03:38;;;;;;;34.97;15.63;;;9.00;92.40;;;;;;5054185;28;20165;-83
2021/05/14 04:06:04;;;;;;;37.37;16.73;;;9.00;92.40;;;;;;5054406;28;20164;-83
2021/05/14 04:08:29;;;;;;;43.63;16.73;;;9.00;92.30;;;;;;5036264;28;20648;-84
2021/05/14 04:16:23;;;;;;;40.43;16.20;;;9.00;92.30;;;;;;5054107;28;20167;-84
2021/05/14 04:18:48;;;;;;;33.80;16.00;;;9.00;92.40;;;;;;5036088;28;20636;-84
2021/05/14 04:21:14;;;;;;;43.50;16.70;;;9.00;92.40;;;;;;5035914;28;20223;-83
2021/05/14 04:23:40;;;;;;;47.27;15.73;;;9.10;92.40;;;;;;5053843;28;20172;-83
2021/05/14 04:26:05;;;;;;;35.47;15.10;;;9.10;92.40;;;;;;5054382;28;20520;-83
2021/05/14 04:28:31;;;;;;;37.97;15.93;;;9.10;92.50;;;;;;5053732;28;20569;-84
2021/05/14 04:30:57;;;;;;;47.27;15.90;;;9.10;92.40;;;;;;5053697;28;20203;-83
2021/05/14 04:33:22;;;;;;;32.07;13.63;;;9.10;92.40;;;;;;5053620;28;20267;-83
2021/05/14 04:35:49;;;;;;;33.93;14.47;;;9.00;92.20;;;;;;5035895;28;20187;-83
2021/05/14 04:38:15;;;;;;;37.37;14.77;;;9.10;92.20;;;;;;5036047;28;20298;-84
2021/05/14 04:40:40;;;;;;;40.30;14.97;;;9.10;92.20;;;;;;5035652;28;20223;-83
2021/05/14 04:43:06;;;;;;;41.37;15.17;;;9.10;92.30;;;;;;5053605;28;20172;-83
2021/05/14 04:45:32;;;;;;;36.60;13.87;;;9.10;92.20;;;;;;5053525;28;20590;-84
2021/05/14 04:47:58;;;;;;;30.47;13.83;;;9.10;92.10;;;;;;5035655;28;20175;-84
2021/05/14 04:50:24;;;;;;;36.20;13.53;;;9.10;92.10;;;;;;5035383;28;20206;-84
2021/05/14 04:53:00;;;;;;;35.53;13.80;;;9.10;92.10;;;;;;5053453;28;20628;-83
2021/05/14 04:55:26;;;;;;;33.20;12.93;;;9.10;92.10;;;;;;5035474;28;20180;-83
2021/05/14 04:57:51;;;;;;;35.00;14.47;;;9.10;92.10;;;;;;5053315;28;20172;-83
2021/05/14 05:00:19;;;;;;;34.80;13.67;;;9.00;92.20;;;;;;5053195;28;20182;-83
2021/05/14 05:02:44;;;;;;;33.00;14.83;;;9.10;92.30;;;;;;5053226;28;20611;-83
2021/05/14 05:05:10;;;;;;;35.10;15.07;;;9.10;92.30;;;;;;5035325;28;20180;-83
2021/05/14 05:07:36;;;;;;;34.17;13.93;;;9.00;92.20;;;;;;5035316;28;20172;-83
2021/05/14 05:10:02;;;;;;;34.03;13.53;;;9.10;92.20;;;;;;5053440;28;20653;-83
2021/05/14 05:12:28;;;;;;;36.53;13.07;;;9.10;92.20;;;;;;5035198;28;20241;-83
2021/05/14 05:14:53;;;;;;;31.80;13.63;;;9.10;92.00;;;;;;5035332;28;20644;-83
2021/05/14 05:17:19;;;;;;;38.90;14.30;;;9.20;92.10;;;;;;5035259;28;20179;-83
2021/05/14 05:19:44;;;;;;;33.57;12.60;;;9.20;92.10;;;;;;5053133;28;20175;-83
2021/05/14 05:22:10;;;;;;;35.40;12.63;;;9.20;91.90;;;;;;5035176;28;20709;-83
2021/05/14 05:24:36;;;;;;;38.57;12.37;;;9.20;91.90;;;;;;5053117;28;20168;-83
2021/05/14 05:27:01;;;;;;;32.50;11.80;;;9.20;91.90;;;;;;5053123;28;20203;-84
2021/05/14 05:29:27;;;;;;;38.37;11.87;;;9.20;91.70;;;;;;5035244;28;20183;-84
2021/05/14 05:31:53;;;;;;;29.13;11.40;;;9.20;91.50;;;;;;5034968;28;20675;-83
2021/05/14 05:34:18;;;;;;;32.13;12.03;;;9.20;91.60;;;;;;5035146;28;20219;-83
2021/05/14 05:36:44;;;;;;;35.70;14.10;;;9.30;91.70;;;;;;5052998;28;20696;-84
2021/05/14 05:39:10;;;;;;;36.50;13.83;;;9.20;91.50;;;;;;5035201;28;20214;-84
2021/05/14 05:41:35;;;;;;;30.93;11.77;;;9.20;91.40;;;;;;5035416;28;20204;-83
2021/05/14 05:44:01;;;;;;;35.97;12.07;;;9.20;91.20;;;;;;5038997;28;20172;-84
2021/05/14 05:46:27;;;;;;;29.53;12.07;;;9.20;91.30;;;;;;5057102;28;20616;-84
2021/05/14 05:48:52;;;;;;;31.63;10.93;;;9.10;91.20;;;;;;5056767;28;20173;-84
2021/05/14 05:51:18;;;;;;;28.37;11.67;;;9.10;91.30;;;;;;5056792;28;20220;-84
2021/05/14 05:53:44;;;;;;;28.20;10.67;;;9.20;91.40;;;;;;5038923;28;20185;-84
2021/05/14 05:56:10;;;;;;;30.60;10.87;;;9.20;91.30;;;;;;5056738;28;20663;-83
2021/05/14 05:58:35;;;;;;;31.37;11.23;;;9.20;91.30;;;;;;5038731;28;20210;-84
2021/05/14 06:01:02;;;;;;;35.70;11.73;;;9.20;91.30;;;;;;5038495;28;20703;-84
2021/05/14 06:03:27;;;;;;;32.13;11.93;;;9.20;91.20;;;;;;5038938;28;20583;-84
2021/05/14 06:05:53;;;;;;;27.97;10.47;;;9.20;91.00;;;;;;5056426;28;20176;-83
2021/05/14 06:08:18;;;;;;;27.93;11.53;;;9.20;91.00;;;;;;5038552;28;20272;-83
2021/05/14 06:10:48;;;;;;;32.33;11.83;;;9.20;91.00;;;;;;5038527;28;20203;-83
2021/05/14 06:13:14;;;;;;;33.10;13.37;;;9.20;91.00;;;;;;5056362;28;20168;-83
2021/05/14 06:15:40;;;;;;;38.17;12.03;;;9.20;90.90;;;;;;5056322;28;20263;-83
2021/05/14 06:18:10;;;;;;;30.70;11.87;;;9.20;91.10;;;;;;5056284;28;20654;-83
2021/05/14 06:20:38;;;;;;;38.67;12.00;;;9.30;91.10;;;;;;5038153;28;20196;-84
2021/05/14 06:23:03;;;;;;;29.17;11.43;;;9.30;90.80;;;;;;5038531;28;20547;-84
2021/05/14 06:25:29;;;;;;;37.47;11.80;;;9.30;91.00;;;;;;5038237;28;20180;-84
2021/05/14 06:27:55;;;;;;;35.17;11.37;;;9.30;90.80;;;;;;5056045;28;20177;-84
2021/05/14 06:30:21;;;;;;;30.07;11.70;;;9.30;90.80;;;;;;5038112;28;20676;-83
2021/05/14 06:32:46;;;;;;;34.90;11.37;;;9.30;90.50;;;;;;5056344;28;20214;-83
2021/05/14 06:35:12;;;;;;;41.97;11.40;;;9.40;90.70;;;;;;5055938;28;20187;-83
2021/05/14 06:37:38;;;;;;;35.47;10.93;;;9.40;90.80;;;;;;5055919;28;20302;-83
2021/05/14 06:40:07;;;;;;;35.20;10.40;;;9.40;90.60;;;;;;5037965;28;20712;-83
2021/05/14 06:42:33;;;;;;;24.70;9.93;;;9.30;90.50;;;;;;5055758;28;20689;-83
2021/05/14 06:44:59;;;;;;;28.77;10.23;;;9.40;90.50;;;;;;5055749;28;20249;-83
2021/05/14 06:47:25;;;;;;;23.17;9.10;;;9.40;90.50;;;;;;5055769;28;20201;-84
2021/05/14 06:49:51;;;;;;;27.43;9.70;;;9.40;90.40;;;;;;5037830;28;20183;-84
2021/05/14 06:52:16;;;;;;;36.10;9.53;;;9.40;90.40;;;;;;5055496;28;20638;-83
2021/05/14 06:54:42;;;;;;;28.20;9.00;;;9.40;90.40;;;;;;5054577;28;20185;-83
2021/05/14 06:57:09;;;;;;;34.20;9.97;;;9.40;90.20;;;;;;5055533;28;20172;-84
2021/05/14 06:59:35;;;;;;;34.30;9.63;;;9.50;90.20;;;;;;5037548;28;20176;-84
2021/05/14 07:02:00;;;;;;;30.53;9.50;;;9.40;89.90;;;;;;5055627;28;20704;-84
2021/05/14 07:04:26;;;;;;;30.00;10.80;;;9.50;90.10;;;;;;5037602;28;20176;-83
2021/05/14 07:06:51;;;;;;;38.90;12.00;;;9.40;90.20;;;;;;5037399;28;20175;-84
2021/05/14 07:09:17;;;;;;;22.33;8.30;;;9.50;90.20;;;;;;5037670;28;20187;-84
2021/05/14 07:11:42;;;;;;;37.07;9.03;;;9.50;89.90;;;;;;5037391;28;20192;-83
2021/05/14 07:14:08;;;;;;;27.87;7.70;;;9.50;89.60;;;;;;5055402;28;20171;-83
2021/05/14 07:16:34;;;;;;;27.73;9.10;;;9.60;89.20;;;;;;5037379;28;20545;-83
2021/05/14 07:18:59;;;;;;;32.67;8.13;;;9.50;89.10;;;;;;5055451;28;20226;-83
2021/05/14 07:21:25;;;;;;;31.20;8.07;;;9.60;88.90;;;;;;5055093;28;20552;-83
2021/05/14 07:23:50;;;;;;;23.73;7.93;;;9.60;89.00;;;;;;5037278;28;20547;-83
2021/05/14 07:26:17;;;;;;;22.77;7.87;;;9.60;89.20;;;;;;5037282;28;20168;-84
2021/05/14 07:28:43;;;;;;;28.17;9.40;;;9.70;89.40;;;;;;5055024;28;20251;-84
2021/05/14 07:31:09;;;;;;;30.93;9.30;;;9.80;89.60;;;;;;5036924;28;20238;-84
2021/05/14 07:33:37;;;;;;;27.53;8.73;;;9.80;89.70;;;;;;5054815;28;20184;-84
2021/05/14 07:36:04;;;;;;;32.90;8.90;;;9.80;89.40;;;;;;5036963;28;20172;-84
2021/05/14 07:38:29;;;;;;;25.87;8.07;;;9.90;89.40;;;;;;5054880;28;20310;-84
2021/05/14 07:40:55;;;;;;;23.57;7.60;;;9.90;89.40;;;;;;5036816;28;20746;-84
2021/05/14 07:43:20;;;;;;;18.00;6.53;;;10.00;88.60;;;;;;5054653;28;20568;-84
2021/05/14 07:45:46;;;;;;;33.57;8.30;;;9.90;88.00;;;;;;5054723;28;20247;-84
2021/05/14 07:48:20;;;;;;;22.43;7.77;;;10.00;88.30;;;;;;5054765;28;20170;-84
2021/05/14 07:50:49;;;;;;;23.70;7.77;;;10.10;88.50;;;;;;5036617;28;20552;-83
2021/05/14 07:53:15;;;;;;;34.63;8.67;;;10.10;88.30;;;;;;5054537;28;20160;-84
2021/05/14 07:55:41;;;;;;;24.73;7.27;;;10.10;88.10;;;;;;5036703;28;20595;-84
2021/05/14 07:58:07;;;;;;;28.30;7.73;;;10.10;88.00;;;;;;5054453;28;20172;-83
2021/05/14 08:00:32;;;;;;;23.50;7.87;;;10.20;88.30;;;;;;5054343;28;20197;-84
2021/05/14 08:02:58;;;;;;;30.77;7.80;;;10.20;87.90;;;;;;5036427;28;20230;-84
2021/05/14 08:05:24;;;;;;;30.33;7.90;;;10.30;88.00;;;;;;5036262;28;20275;-84
2021/05/14 08:08:20;;;;;;;24.13;7.37;;;10.30;88.00;;;;;;5036400;28;20173;-84
2021/05/14 08:10:46;;;;;;;31.53;7.67;;;10.30;88.10;;;;;;5024348;28;20200;-84
2021/05/14 08:13:12;;;;;;;26.80;7.37;;;10.30;87.90;;;;;;5054231;28;20275;-84
2021/05/14 08:15:41;;;;;;;32.20;9.93;;;10.30;88.10;;;;;;5036549;28;20177;-84
2021/05/14 08:18:06;;;;;;;26.43;7.87;;;10.30;88.10;;;;;;5036159;28;20172;-84
2021/05/14 08:20:33;;;;;;;24.70;7.20;;;10.30;88.60;;;;;;5036200;28;20203;-84
2021/05/14 08:22:58;;;;;;;27.87;8.00;;;10.30;88.30;;;;;;5053930;28;20256;-84
2021/05/14 08:25:24;;;;;;;31.77;8.23;;;10.30;88.10;;;;;;5036120;28;20168;-84
2021/05/14 08:27:50;;;;;;;24.77;7.73;;;10.30;88.00;;;;;;5036036;28;20553;-84
2021/05/14 08:30:16;;;;;;;27.47;8.70;;;10.30;88.00;;;;;;5054150;28;20175;-84
2021/05/14 08:32:42;;;;;;;23.13;9.17;;;10.30;87.60;;;;;;5036107;28;20183;-83
2021/05/14 08:35:09;;;;;;;29.47;8.97;;;10.10;88.40;;;;;;5035853;28;20198;-84
2021/05/14 08:37:36;;;;;;;39.90;9.50;;;10.10;88.50;;;;;;5036015;28;20233;-84
2021/05/14 08:40:04;;;;;;;40.77;9.17;;;10.00;88.30;;;;;;5053781;28;20168;-84
2021/05/14 08:42:29;;;;;;;29.87;10.40;;;10.00;88.70;;;;;;5053585;28;20210;-84
2021/05/14 08:44:56;;;;;;;33.80;10.90;;;9.90;88.80;;;;;;5053681;28;20250;-84
2021/05/14 08:47:22;;;;;;;31.70;8.97;;;9.90;88.80;;;;;;5035713;28;20208;-84
2021/05/14 08:49:49;;;;;;;22.67;9.27;;;10.00;88.50;;;;;;5035894;28;20642;-84
2021/05/14 08:52:16;;;;;;;31.37;11.00;;;9.90;88.50;;;;;;5053692;28;20215;-83
2021/05/14 08:54:45;;;;;;;23.93;8.97;;;10.00;88.70;;;;;;5053879;28;20199;-84
2021/05/14 08:57:11;;;;;;;21.10;8.80;;;10.00;88.70;;;;;;5053894;28;20176;-84
2021/05/14 08:59:38;;;;;;;36.17;10.57;;;10.00;88.50;;;;;;5035790;28;20520;-84
2021/05/14 09:02:04;;;;;;;34.70;9.90;;;10.10;88.20;;;;;;5035432;28;20204;-84
2021/05/14 09:04:31;;;;;;;32.73;9.57;;;10.10;88.10;;;;;;5053380;28;20175;-84
2021/05/14 09:06:57;;;;;;;22.40;9.17;;;10.10;88.30;;;;;;5035448;28;20659;-83
2021/05/14 09:09:22;;;;;;;25.23;8.53;;;10.10;88.40;;;;;;5053249;28;20169;-84
2021/05/14 09:11:51;;;;;;;26.87;8.93;;;10.10;88.20;;;;;;5053229;28;20191;-84
2021/05/14 09:14:35;;;;;;;28.23;8.97;;;10.00;87.80;;;;;;5035413;28;20174;-84
2021/05/14 09:17:09;;;;;;;19.40;8.47;;;10.00;87.90;;;;;;5052841;28;20204;-84
2021/05/14 09:19:38;;;;;;;29.27;8.77;;;10.10;88.10;;;;;;5053203;28;20173;-84
2021/05/14 09:22:14;;;;;;;19.80;7.67;;;10.20;87.60;;;;;;5052974;28;20196;-84
2021/05/14 09:24:41;;;;;;;25.53;7.43;;;10.20;87.30;;;;;;5053181;28;20177;-84
2021/05/14 09:27:27;;;;;;;38.03;14.17;;;10.20;87.30;;;;;;5053190;28;20215;-84
2021/05/14 09:29:57;;;;;;;26.07;9.87;;;10.10;86.90;;;;;;5053152;28;20232;-84
2021/05/14 09:32:28;;;;;;;29.80;8.53;;;10.00;87.00;;;;;;5053008;28;20190;-84
2021/05/14 09:34:56;;;;;;;27.17;8.23;;;10.00;87.10;;;;;;5035203;28;20214;-84
2021/05/14 09:37:25;;;;;;;28.67;8.13;;;10.00;86.90;;;;;;5053150;28;20164;-84
2021/05/14 09:40:20;;;;;;;32.27;8.40;;;10.00;87.20;;;;;;5053231;28;20550;-84
2021/05/14 09:42:49;;;;;;;19.60;7.23;;;10.10;87.30;;;;;;5035124;28;20701;-84
2021/05/14 09:45:25;;;;;;;24.10;7.90;;;10.10;87.20;;;;;;5053352;28;20165;-84
2021/05/14 09:50:51;;;;;;;23.47;8.33;;;10.00;87.40;;;;;;5052910;28;20223;-84
2021/05/14 09:53:19;;;;;;;30.43;8.50;;;10.00;87.40;;;;;;5053083;28;20180;-84
2021/05/14 09:55:50;;;;;;;25.87;7.90;;;10.00;87.30;;;;;;5052812;28;20179;-84
2021/05/14 09:58:21;;;;;;;21.90;7.73;;;10.00;86.90;;;;;;5053256;28;20198;-84
2021/05/14 10:00:47;;;;;;;27.00;8.30;;;10.00;87.10;;;;;;5052751;28;20258;-84
2021/05/14 10:03:30;;;;;;;28.80;7.87;;;10.10;87.40;;;;;;5035062;28;20286;-84
2021/05/14 10:05:57;;;;;;;18.93;7.27;;;10.10;87.20;;;;;;5035008;28;20222;-84
2021/05/14 10:08:25;;;;;;;21.10;7.30;;;10.10;87.20;;;;;;5035023;28;20172;-84
2021/05/14 10:10:51;;;;;;;18.30;6.33;;;10.20;87.20;;;;;;5052804;28;20190;-83
2021/05/14 10:13:18;;;;;;;34.27;9.73;;;10.10;87.10;;;;;;5053222;28;20580;-83
2021/05/14 10:15:43;;;;;;;18.93;7.20;;;10.00;88.00;;;;;;5034845;28;20183;-83
2021/05/14 10:18:17;;;;;;;20.43;7.33;;;9.90;88.00;;;;;;5034873;28;20172;-83
2021/05/14 10:20:45;;;;;;;17.60;7.13;;;9.90;88.60;;;;;;5052490;28;20550;-83
2021/05/14 10:23:12;;;;;;;20.73;6.80;;;9.90;88.90;;;;;;5053267;28;20585;-84
2021/05/14 10:25:38;;;;;;;24.40;7.17;;;9.90;88.20;;;;;;5052600;28;20176;-84
2021/05/14 10:28:16;;;;;;;25.33;6.97;;;9.90;88.50;;;;;;5035910;28;20179;-83
2021/05/14 10:31:02;;;;;;;22.73;7.47;;;9.80;88.30;;;;;;5038262;28;20200;-84
2021/05/14 10:33:58;;;;;;;20.53;7.33;;;9.80;88.90;;;;;;5038299;28;20242;-84
2021/05/14 10:36:32;;;;;;;25.53;8.43;;;9.80;88.60;;;;;;5039186;28;20228;-84
2021/05/14 10:39:05;;;;;;;19.77;7.60;;;9.90;88.60;;;;;;5038345;28;20620;-84
2021/05/14 10:41:31;;;;;;;18.97;7.47;;;9.90;89.20;;;;;;5055841;28;20199;-84
2021/05/14 10:44:02;;;;;;;24.60;7.43;;;9.80;89.20;;;;;;5038770;28;20191;-84
2021/05/14 10:46:29;;;;;;;29.20;9.30;;;9.80;88.80;;;;;;5038942;28;20643;-85
2021/05/14 10:49:06;;;;;;;22.93;7.77;;;9.80;88.80;;;;;;5058750;28;20214;-84
2021/05/14 10:51:59;;;;;;;22.97;8.17;;;9.70;89.00;;;;;;5058863;28;20282;-84
2021/05/14 10:54:39;;;;;;;15.50;7.13;;;9.80;89.20;;;;;;5058491;28;20188;-84
2021/05/14 10:57:05;;;;;;;22.57;8.10;;;9.80;89.20;;;;;;5040286;28;20211;-84
2021/05/14 10:59:34;;;;;;;17.43;7.43;;;9.80;89.60;;;;;;5042004;28;20205;-84
2021/05/14 11:02:20;;;;;;;22.07;8.47;;;9.80;89.50;;;;;;5059354;28;20204;-84
2021/05/14 11:04:46;;;;;;;23.50;8.17;;;9.80;89.60;;;;;;5059797;28;20191;-85
2021/05/14 11:07:35;;;;;;;23.90;8.73;;;9.80;89.20;;;;;;5060225;28;20168;-84
2021/05/14 11:10:12;;;;;;;18.33;7.60;;;9.70;89.40;;;;;;5060958;28;20164;-84
2021/05/14 11:12:39;;;;;;;20.87;9.13;;;9.80;89.40;;;;;;5060252;28;20176;-85
2021/05/14 11:15:31;;;;;;;23.83;9.27;;;9.80;89.50;;;;;;5060855;28;20206;-84
2021/05/14 11:18:06;;;;;;;25.07;9.27;;;9.70;89.90;;;;;;5061659;28;20175;-85
2021/05/14 11:20:42;;;;;;;31.17;9.50;;;9.70;89.90;;;;;;5059951;28;20191;-84
2021/05/14 11:23:43;;;;;;;22.37;9.33;;;9.60;90.30;;;;;;5041328;28;20272;-84
2021/05/14 11:26:17;;;;;;;24.90;9.13;;;9.60;90.50;;;;;;4979942;28;20209;-84
2021/05/14 11:28:44;;;;;;;30.70;10.47;;;9.60;90.70;;;;;;5031529;28;20273;-84
2021/05/14 11:31:27;;;;;;;30.00;10.50;;;9.60;90.50;;;;;;5042040;28;20671;-84
2021/05/14 11:33:55;;;;;;;20.40;10.17;;;9.60;90.90;;;;;;5060834;28;20165;-84
2021/05/14 11:36:22;;;;;;;23.27;10.97;;;9.70;91.20;;;;;;5058923;28;20253;-84
2021/05/14 11:38:54;;;;;;;25.30;10.50;;;9.70;91.10;;;;;;5058701;28;20179;-84
2021/05/14 11:41:28;;;;;;;17.63;9.93;;;9.60;91.20;;;;;;5058830;28;20222;-84
2021/05/14 11:44:02;;;;;;;23.63;10.20;;;9.50;91.40;;;;;;5041051;28;20168;-84
2021/05/14 11:46:31;;;;;;;23.07;10.03;;;9.70;91.60;;;;;;5059336;28;20206;-84
2021/05/14 11:49:10;;;;;;;21.03;10.00;;;9.60;91.50;;;;;;5041870;28;20537;-85
2021/05/14 11:51:39;;;;;;;26.57;10.50;;;9.80;91.50;;;;;;5058288;28;20294;-85
2021/05/14 11:54:15;;;;;;;23.90;11.33;;;9.90;91.40;;;;;;5059722;28;20544;-85
2021/05/14 11:56:42;;;;;;;23.17;11.83;;;9.90;91.50;;;;;;5041676;28;20191;-84
2021/05/14 11:59:21;;;;;;;17.97;10.80;;;10.00;91.60;;;;;;5057399;28;20735;-85
2021/05/14 12:01:47;;;;;;;24.00;11.50;;;9.90;91.40;;;;;;5057448;28;20202;-85
2021/05/14 12:04:12;;;;;;;22.00;11.23;;;10.00;91.60;;;;;;5041096;28;20172;-85
2021/05/14 12:06:51;;;;;;;23.43;11.07;;;10.00;91.60;;;;;;5040193;28;20172;-85
2021/05/14 12:09:19;;;;;;;23.90;10.60;;;10.00;91.40;;;;;;5040319;28;20249;-85
2021/05/14 12:11:45;;;;;;;27.50;11.63;;;10.10;91.70;;;;;;5039745;28;20333;-84
2021/05/14 12:14:20;;;;;;;21.87;11.97;;;10.10;91.60;;;;;;5057273;28;20218;-85
2021/05/14 12:16:46;;;;;;;28.97;11.90;;;10.00;91.70;;;;;;5058791;28;20156;-84
2021/05/14 12:19:12;;;;;;;25.27;12.07;;;10.00;91.30;;;;;;5040315;28;20242;-85
2021/05/14 12:21:38;;;;;;;22.83;12.23;;;10.00;91.70;;;;;;5057311;28;20199;-85
2021/05/14 12:24:20;;;;;;;24.03;11.97;;;10.00;91.90;;;;;;5055995;28;20170;-85
2021/05/14 12:26:47;;;;;;;25.33;12.13;;;10.00;91.70;;;;;;5057393;28;20164;-85
2021/05/14 12:29:24;;;;;;;22.30;10.73;;;10.00;91.70;;;;;;5056260;28;20168;-84
2021/05/14 12:31:57;;;;;;;24.93;11.53;;;10.00;91.50;;;;;;5040945;28;20195;-85
2021/05/14 12:34:25;;;;;;;23.03;11.70;;;10.10;91.50;;;;;;5036872;28;20199;-85
2021/05/14 12:36:54;;;;;;;24.70;12.17;;;10.10;91.70;;;;;;5054612;28;20175;-85
2021/05/14 12:39:20;;;;;;;22.57;12.63;;;10.10;91.70;;;;;;5054540;28;20168;-85
2021/05/14 12:41:49;;;;;;;24.57;12.53;;;10.20;91.70;;;;;;5036600;28;20204;-85
2021/05/14 12:44:25;;;;;;;28.93;12.87;;;10.20;91.50;;;;;;5053987;28;20285;-84
2021/05/14 12:47:04;;;;;;;22.07;13.07;;;10.20;91.60;;;;;;5053663;28;20171;-84
2021/05/14 12:49:47;;;;;;;28.17;13.83;;;10.30;91.70;;;;;;5035661;28;20176;-84